sensor_id;sensor_type;location;lat;lon;timestamp;temperature;humidity
47350;DHT22;33088;51.982;5.872;2023-03-01T00:02:20;0.70;99.90
47350;DHT22;33088;51.982;5.872;2023-03-01T00:04:46;0.60;99.90
47350;DHT22;33088;51.982;5.872;2023-03-01T00:07:12;0.60;99.90
47350;DHT22;33088;51.982;5.872;2023-03-01T00:09:38;0.50;99.90
47350;DHT22;33088;51.982;5.872;2023-03-01T00:12:05;0.50;99.90
47350;DHT22;33088;51.982;5.872;2023-03-01T00:14:31;0.50;99.90
47350;DHT22;33088;51.982;5.872;2023-03-01T00:16:57;0.50;99.90
47350;DHT22;33088;51.982;5.872;2023-03-01T00:19:23;0.50;99.90
47350;DHT22;33088;51.982;5.872;2023-03-01T00:21:48;0.50;99.90
47350;DHT22;33088;51.982;5.872;2023-03-01T00:24:14;0.40;99.90
47350;DHT22;33088;51.982;5.872;2023-03-01T00:26:40;0.40;99.90
47350;DHT22;33088;51.982;5.872;2023-03-01T00:29:06;0.40;99.90
47350;DHT22;33088;51.982;5.872;2023-03-01T00:31:32;0.30;99.90
47350;DHT22;33088;51.982;5.872;2023-03-01T00:34:04;0.20;99.90
47350;DHT22;33088;51.982;5.872;2023-03-01T00:36:33;0.10;99.90
47350;DHT22;33088;51.982;5.872;2023-03-01T00:38:59;0.10;99.90
47350;DHT22;33088;51.982;5.872;2023-03-01T00:41:26;0.10;99.90
47350;DHT22;33088;51.982;5.872;2023-03-01T00:43:53;0.10;99.90
47350;DHT22;33088;51.982;5.872;2023-03-01T00:46:21;0.10;99.90
47350;DHT22;33088;51.982;5.872;2023-03-01T00:48:48;0.10;99.90
47350;DHT22;33088;51.982;5.872;2023-03-01T00:51:15;0.10;99.90
47350;DHT22;33088;51.982;5.872;2023-03-01T00:53:42;0.20;99.90
47350;DHT22;33088;51.982;5.872;2023-03-01T00:56:09;0.10;99.90
47350;DHT22;33088;51.982;5.872;2023-03-01T00:58:36;0.10;99.90
47350;DHT22;33088;51.982;5.872;2023-03-01T01:01:08;0.10;99.90
47350;DHT22;33088;51.982;5.872;2023-03-01T01:03:43;0.00;99.90
47350;DHT22;33088;51.982;5.872;2023-03-01T01:06:21;0.00;99.90
47350;DHT22;33088;51.982;5.872;2023-03-01T01:08:48;-0.10;99.90
47350;DHT22;33088;51.982;5.872;2023-03-01T01:11:14;-0.10;99.90
47350;DHT22;33088;51.982;5.872;2023-03-01T01:13:41;-0.20;99.90
47350;DHT22;33088;51.982;5.872;2023-03-01T01:16:07;-0.20;99.90
47350;DHT22;33088;51.982;5.872;2023-03-01T01:18:33;-0.20;99.90
47350;DHT22;33088;51.982;5.872;2023-03-01T01:21:04;-0.20;99.90
47350;DHT22;33088;51.982;5.872;2023-03-01T01:23:30;-0.10;99.90
47350;DHT22;33088;51.982;5.872;2023-03-01T01:25:56;-0.30;99.90
47350;DHT22;33088;51.982;5.872;2023-03-01T01:28:21;-0.30;99.90
47350;DHT22;33088;51.982;5.872;2023-03-01T01:30:47;-0.30;99.90
47350;DHT22;33088;51.982;5.872;2023-03-01T01:33:13;-0.30;99.90
47350;DHT22;33088;51.982;5.872;2023-03-01T01:35:38;-0.20;99.90
47350;DHT22;33088;51.982;5.872;2023-03-01T01:38:04;-0.20;99.90
47350;DHT22;33088;51.982;5.872;2023-03-01T01:40:29;-0.30;99.90
47350;DHT22;33088;51.982;5.872;2023-03-01T01:42:55;-0.30;99.90
47350;DHT22;33088;51.982;5.872;2023-03-01T01:45:27;-0.20;99.90
47350;DHT22;33088;51.982;5.872;2023-03-01T01:47:57;-0.30;99.90
47350;DHT22;33088;51.982;5.872;2023-03-01T01:50:23;-0.30;99.90
47350;DHT22;33088;51.982;5.872;2023-03-01T01:52:50;-0.30;99.90
47350;DHT22;33088;51.982;5.872;2023-03-01T01:55:25;-0.30;99.90
47350;DHT22;33088;51.982;5.872;2023-03-01T01:57:56;-0.30;99.90
47350;DHT22;33088;51.982;5.872;2023-03-01T02:00:27;-0.30;99.90
47350;DHT22;33088;51.982;5.872;2023-03-01T02:03:14;-0.30;99.90
47350;DHT22;33088;51.982;5.872;2023-03-01T02:08:28;-0.30;99.90
47350;DHT22;33088;51.982;5.872;2023-03-01T02:10:56;-0.30;99.90
47350;DHT22;33088;51.982;5.872;2023-03-01T02:13:23;-0.30;99.90
47350;DHT22;33088;51.982;5.872;2023-03-01T02:15:49;-0.30;99.90
47350;DHT22;33088;51.982;5.872;2023-03-01T02:18:18;-0.30;99.90
47350;DHT22;33088;51.982;5.872;2023-03-01T02:23:22;-0.30;99.90
47350;DHT22;33088;51.982;5.872;2023-03-01T02:25:58;-0.30;99.90
47350;DHT22;33088;51.982;5.872;2023-03-01T02:28:37;-0.30;99.90
47350;DHT22;33088;51.982;5.872;2023-03-01T02:31:06;-0.30;99.90
47350;DHT22;33088;51.982;5.872;2023-03-01T02:33:51;-0.30;99.90
47350;DHT22;33088;51.982;5.872;2023-03-01T02:36:28;-0.30;99.90
47350;DHT22;33088;51.982;5.872;2023-03-01T02:38:59;-0.30;99.90
47350;DHT22;33088;51.982;5.872;2023-03-01T02:41:27;-0.30;99.90
47350;DHT22;33088;51.982;5.872;2023-03-01T02:43:53;-0.40;99.90
47350;DHT22;33088;51.982;5.872;2023-03-01T02:46:23;-0.20;99.90
47350;DHT22;33088;51.982;5.872;2023-03-01T02:48:52;-0.30;99.90
47350;DHT22;33088;51.982;5.872;2023-03-01T02:54:35;-0.20;99.90
47350;DHT22;33088;51.982;5.872;2023-03-01T02:57:02;-0.20;99.90
47350;DHT22;33088;51.982;5.872;2023-03-01T02:59:33;-0.20;99.90
47350;DHT22;33088;51.982;5.872;2023-03-01T03:02:08;-0.30;99.90
47350;DHT22;33088;51.982;5.872;2023-03-01T03:04:45;-0.30;99.90
47350;DHT22;33088;51.982;5.872;2023-03-01T03:07:11;-0.20;99.90
47350;DHT22;33088;51.982;5.872;2023-03-01T03:09:37;-0.20;99.90
47350;DHT22;33088;51.982;5.872;2023-03-01T03:12:03;-0.20;99.90
47350;DHT22;33088;51.982;5.872;2023-03-01T03:14:29;-0.20;99.90
47350;DHT22;33088;51.982;5.872;2023-03-01T03:16:55;-0.30;99.90
47350;DHT22;33088;51.982;5.872;2023-03-01T03:19:21;-0.30;99.90
47350;DHT22;33088;51.982;5.872;2023-03-01T03:21:46;-0.30;99.90
47350;DHT22;33088;51.982;5.872;2023-03-01T03:24:12;-0.30;99.90
47350;DHT22;33088;51.982;5.872;2023-03-01T03:26:38;-0.30;99.90
47350;DHT22;33088;51.982;5.872;2023-03-01T03:29:03;-0.30;99.90
47350;DHT22;33088;51.982;5.872;2023-03-01T03:31:29;-0.30;99.90
47350;DHT22;33088;51.982;5.872;2023-03-01T03:33:55;-0.20;99.90
47350;DHT22;33088;51.982;5.872;2023-03-01T03:36:24;-0.30;99.90
47350;DHT22;33088;51.982;5.872;2023-03-01T03:38:50;-0.20;99.90
47350;DHT22;33088;51.982;5.872;2023-03-01T03:41:16;-0.20;99.90
47350;DHT22;33088;51.982;5.872;2023-03-01T03:43:43;-0.20;99.90
47350;DHT22;33088;51.982;5.872;2023-03-01T03:46:10;-0.30;99.90
47350;DHT22;33088;51.982;5.872;2023-03-01T03:48:41;-0.30;99.90
47350;DHT22;33088;51.982;5.872;2023-03-01T03:51:13;-0.30;99.90
47350;DHT22;33088;51.982;5.872;2023-03-01T03:53:40;-0.30;99.90
47350;DHT22;33088;51.982;5.872;2023-03-01T03:56:06;-0.30;99.90
47350;DHT22;33088;51.982;5.872;2023-03-01T03:58:34;-0.30;99.90
47350;DHT22;33088;51.982;5.872;2023-03-01T04:00:59;-0.30;99.90
47350;DHT22;33088;51.982;5.872;2023-03-01T04:03:27;-0.30;99.90
47350;DHT22;33088;51.982;5.872;2023-03-01T04:05:53;-0.30;99.90
47350;DHT22;33088;51.982;5.872;2023-03-01T04:08:19;-0.30;99.90
47350;DHT22;33088;51.982;5.872;2023-03-01T04:10:52;-0.40;99.90
47350;DHT22;33088;51.982;5.872;2023-03-01T04:13:21;-0.40;99.90
47350;DHT22;33088;51.982;5.872;2023-03-01T04:15:52;-0.40;99.90
47350;DHT22;33088;51.982;5.872;2023-03-01T04:18:19;-0.40;99.90
47350;DHT22;33088;51.982;5.872;2023-03-01T04:20:46;-0.50;99.90
47350;DHT22;33088;51.982;5.872;2023-03-01T04:23:17;-0.40;99.90
47350;DHT22;33088;51.982;5.872;2023-03-01T04:25:53;-0.40;99.90
47350;DHT22;33088;51.982;5.872;2023-03-01T04:28:38;-0.40;99.90
47350;DHT22;33088;51.982;5.872;2023-03-01T04:31:14;-0.40;99.90
47350;DHT22;33088;51.982;5.872;2023-03-01T04:33:52;-0.50;99.90
47350;DHT22;33088;51.982;5.872;2023-03-01T04:36:20;-0.50;99.90
47350;DHT22;33088;51.982;5.872;2023-03-01T04:38:46;-0.50;99.90
47350;DHT22;33088;51.982;5.872;2023-03-01T04:41:17;-0.50;99.90
47350;DHT22;33088;51.982;5.872;2023-03-01T04:43:43;-0.50;99.90
47350;DHT22;33088;51.982;5.872;2023-03-01T04:46:12;-0.40;99.90
47350;DHT22;33088;51.982;5.872;2023-03-01T04:48:38;-0.40;99.90
47350;DHT22;33088;51.982;5.872;2023-03-01T04:51:05;-0.40;99.90
47350;DHT22;33088;51.982;5.872;2023-03-01T04:53:32;-0.50;99.90
47350;DHT22;33088;51.982;5.872;2023-03-01T04:55:58;-0.50;99.90
47350;DHT22;33088;51.982;5.872;2023-03-01T04:58:25;-0.60;99.90
47350;DHT22;33088;51.982;5.872;2023-03-01T05:00:52;-0.60;99.90
47350;DHT22;33088;51.982;5.872;2023-03-01T05:03:17;-0.70;99.90
47350;DHT22;33088;51.982;5.872;2023-03-01T05:05:45;-0.60;99.90
47350;DHT22;33088;51.982;5.872;2023-03-01T05:08:12;-0.60;99.90
47350;DHT22;33088;51.982;5.872;2023-03-01T05:10:44;-0.60;99.90
47350;DHT22;33088;51.982;5.872;2023-03-01T05:13:12;-0.60;99.90
47350;DHT22;33088;51.982;5.872;2023-03-01T05:15:39;-0.50;99.90
47350;DHT22;33088;51.982;5.872;2023-03-01T05:18:05;-0.50;99.90
47350;DHT22;33088;51.982;5.872;2023-03-01T05:20:37;-0.60;99.90
47350;DHT22;33088;51.982;5.872;2023-03-01T05:23:04;-0.50;99.90
47350;DHT22;33088;51.982;5.872;2023-03-01T05:25:33;-0.60;99.90
47350;DHT22;33088;51.982;5.872;2023-03-01T05:28:02;-0.60;99.90
47350;DHT22;33088;51.982;5.872;2023-03-01T05:30:35;-0.60;99.90
47350;DHT22;33088;51.982;5.872;2023-03-01T05:33:01;-0.60;99.90
47350;DHT22;33088;51.982;5.872;2023-03-01T05:35:27;-0.60;99.90
47350;DHT22;33088;51.982;5.872;2023-03-01T05:37:54;-0.60;99.90
47350;DHT22;33088;51.982;5.872;2023-03-01T05:40:21;-0.60;99.90
47350;DHT22;33088;51.982;5.872;2023-03-01T05:42:50;-0.60;99.90
47350;DHT22;33088;51.982;5.872;2023-03-01T05:45:17;-0.60;99.90
47350;DHT22;33088;51.982;5.872;2023-03-01T05:47:45;-0.50;99.90
47350;DHT22;33088;51.982;5.872;2023-03-01T05:50:25;-0.50;99.90
47350;DHT22;33088;51.982;5.872;2023-03-01T05:53:05;-0.50;99.90
47350;DHT22;33088;51.982;5.872;2023-03-01T05:55:33;-0.50;99.90
47350;DHT22;33088;51.982;5.872;2023-03-01T05:58:01;-0.50;99.90
47350;DHT22;33088;51.982;5.872;2023-03-01T06:00:28;-0.50;99.90
47350;DHT22;33088;51.982;5.872;2023-03-01T06:02:55;-0.50;99.90
47350;DHT22;33088;51.982;5.872;2023-03-01T06:05:21;-0.50;99.90
47350;DHT22;33088;51.982;5.872;2023-03-01T06:07:48;-0.60;99.90
47350;DHT22;33088;51.982;5.872;2023-03-01T06:10:14;-0.50;99.90
47350;DHT22;33088;51.982;5.872;2023-03-01T06:12:41;-0.50;99.90
47350;DHT22;33088;51.982;5.872;2023-03-01T06:15:08;-0.50;99.90
47350;DHT22;33088;51.982;5.872;2023-03-01T06:17:39;-0.50;99.90
47350;DHT22;33088;51.982;5.872;2023-03-01T06:20:09;-0.40;99.90
47350;DHT22;33088;51.982;5.872;2023-03-01T06:22:35;-0.50;99.90
47350;DHT22;33088;51.982;5.872;2023-03-01T06:25:01;-0.60;99.90
47350;DHT22;33088;51.982;5.872;2023-03-01T06:27:26;-0.60;99.90
47350;DHT22;33088;51.982;5.872;2023-03-01T06:29:52;-0.60;99.90
47350;DHT22;33088;51.982;5.872;2023-03-01T06:32:18;-0.70;99.90
47350;DHT22;33088;51.982;5.872;2023-03-01T06:34:43;-0.70;99.90
47350;DHT22;33088;51.982;5.872;2023-03-01T06:37:10;-0.70;99.90
47350;DHT22;33088;51.982;5.872;2023-03-01T06:39:36;-0.60;99.90
47350;DHT22;33088;51.982;5.872;2023-03-01T06:42:01;-0.70;99.90
47350;DHT22;33088;51.982;5.872;2023-03-01T06:44:27;-0.60;99.90
47350;DHT22;33088;51.982;5.872;2023-03-01T06:46:53;-0.60;99.90
47350;DHT22;33088;51.982;5.872;2023-03-01T06:49:18;-0.50;99.90
47350;DHT22;33088;51.982;5.872;2023-03-01T06:51:45;-0.50;99.90
47350;DHT22;33088;51.982;5.872;2023-03-01T06:54:11;-0.60;99.90
47350;DHT22;33088;51.982;5.872;2023-03-01T06:56:37;-0.60;99.90
47350;DHT22;33088;51.982;5.872;2023-03-01T06:59:03;-0.70;99.90
47350;DHT22;33088;51.982;5.872;2023-03-01T07:01:29;-0.70;99.90
47350;DHT22;33088;51.982;5.872;2023-03-01T07:03:55;-0.60;99.90
47350;DHT22;33088;51.982;5.872;2023-03-01T07:06:22;-0.60;99.90
47350;DHT22;33088;51.982;5.872;2023-03-01T07:08:47;-0.60;99.90
47350;DHT22;33088;51.982;5.872;2023-03-01T07:11:13;-0.70;99.90
47350;DHT22;33088;51.982;5.872;2023-03-01T07:13:39;-0.70;99.90
47350;DHT22;33088;51.982;5.872;2023-03-01T07:16:05;-0.80;99.90
47350;DHT22;33088;51.982;5.872;2023-03-01T07:18:31;-0.80;99.90
47350;DHT22;33088;51.982;5.872;2023-03-01T07:20:57;-0.80;99.90
47350;DHT22;33088;51.982;5.872;2023-03-01T07:23:23;-0.50;99.90
47350;DHT22;33088;51.982;5.872;2023-03-01T07:25:54;-0.30;99.90
47350;DHT22;33088;51.982;5.872;2023-03-01T07:28:22;-0.10;99.90
47350;DHT22;33088;51.982;5.872;2023-03-01T07:30:48;0.00;99.90
47350;DHT22;33088;51.982;5.872;2023-03-01T07:33:14;0.00;99.90
47350;DHT22;33088;51.982;5.872;2023-03-01T07:35:39;0.30;99.90
47350;DHT22;33088;51.982;5.872;2023-03-01T07:38:05;0.30;99.90
47350;DHT22;33088;51.982;5.872;2023-03-01T07:40:30;0.40;99.90
47350;DHT22;33088;51.982;5.872;2023-03-01T07:42:57;0.40;99.90
47350;DHT22;33088;51.982;5.872;2023-03-01T07:45:23;0.50;99.90
47350;DHT22;33088;51.982;5.872;2023-03-01T07:47:51;0.60;99.90
47350;DHT22;33088;51.982;5.872;2023-03-01T07:50:17;0.70;99.90
47350;DHT22;33088;51.982;5.872;2023-03-01T07:52:45;0.80;99.90
47350;DHT22;33088;51.982;5.872;2023-03-01T07:55:11;0.90;99.90
47350;DHT22;33088;51.982;5.872;2023-03-01T07:57:36;1.10;99.90
47350;DHT22;33088;51.982;5.872;2023-03-01T08:00:02;1.10;99.90
47350;DHT22;33088;51.982;5.872;2023-03-01T08:02:37;1.20;99.90
47350;DHT22;33088;51.982;5.872;2023-03-01T08:05:03;1.30;99.90
47350;DHT22;33088;51.982;5.872;2023-03-01T08:07:29;1.30;99.90
47350;DHT22;33088;51.982;5.872;2023-03-01T08:09:55;1.30;99.90
47350;DHT22;33088;51.982;5.872;2023-03-01T08:12:20;1.40;99.90
47350;DHT22;33088;51.982;5.872;2023-03-01T08:14:46;1.50;99.90
47350;DHT22;33088;51.982;5.872;2023-03-01T08:17:13;1.60;99.90
47350;DHT22;33088;51.982;5.872;2023-03-01T08:19:39;1.70;99.90
47350;DHT22;33088;51.982;5.872;2023-03-01T08:22:05;1.70;99.90
47350;DHT22;33088;51.982;5.872;2023-03-01T08:24:31;1.70;99.90
47350;DHT22;33088;51.982;5.872;2023-03-01T08:26:56;1.80;99.90
47350;DHT22;33088;51.982;5.872;2023-03-01T08:29:22;1.90;99.90
47350;DHT22;33088;51.982;5.872;2023-03-01T08:31:50;2.00;99.90
47350;DHT22;33088;51.982;5.872;2023-03-01T08:34:17;2.10;99.90
47350;DHT22;33088;51.982;5.872;2023-03-01T08:36:44;2.10;99.90
47350;DHT22;33088;51.982;5.872;2023-03-01T08:39:13;2.20;99.90
47350;DHT22;33088;51.982;5.872;2023-03-01T08:41:39;2.20;99.90
47350;DHT22;33088;51.982;5.872;2023-03-01T08:44:05;2.30;99.90
47350;DHT22;33088;51.982;5.872;2023-03-01T08:46:37;2.40;99.90
47350;DHT22;33088;51.982;5.872;2023-03-01T08:49:04;2.40;99.90
47350;DHT22;33088;51.982;5.872;2023-03-01T08:51:31;2.40;99.90
47350;DHT22;33088;51.982;5.872;2023-03-01T08:54:06;2.50;99.90
47350;DHT22;33088;51.982;5.872;2023-03-01T08:56:31;2.70;99.90
47350;DHT22;33088;51.982;5.872;2023-03-01T08:58:57;2.70;99.90
47350;DHT22;33088;51.982;5.872;2023-03-01T09:01:23;2.70;99.90
47350;DHT22;33088;51.982;5.872;2023-03-01T09:03:49;2.90;99.90
47350;DHT22;33088;51.982;5.872;2023-03-01T09:06:15;3.00;99.90
47350;DHT22;33088;51.982;5.872;2023-03-01T09:08:46;3.00;99.90
47350;DHT22;33088;51.982;5.872;2023-03-01T09:11:14;3.10;99.90
47350;DHT22;33088;51.982;5.872;2023-03-01T09:13:41;3.00;99.90
47350;DHT22;33088;51.982;5.872;2023-03-01T09:16:08;3.10;99.90
47350;DHT22;33088;51.982;5.872;2023-03-01T09:18:34;3.00;99.90
47350;DHT22;33088;51.982;5.872;2023-03-01T09:21:09;3.10;99.90
47350;DHT22;33088;51.982;5.872;2023-03-01T09:23:36;3.10;99.90
47350;DHT22;33088;51.982;5.872;2023-03-01T09:26:07;3.20;99.90
47350;DHT22;33088;51.982;5.872;2023-03-01T09:28:35;3.10;99.90
47350;DHT22;33088;51.982;5.872;2023-03-01T09:31:01;3.10;99.90
47350;DHT22;33088;51.982;5.872;2023-03-01T09:33:28;3.30;99.90
47350;DHT22;33088;51.982;5.872;2023-03-01T09:35:58;3.30;99.90
47350;DHT22;33088;51.982;5.872;2023-03-01T09:38:24;3.40;99.90
47350;DHT22;33088;51.982;5.872;2023-03-01T09:40:50;3.40;99.90
47350;DHT22;33088;51.982;5.872;2023-03-01T09:43:25;3.40;99.90
47350;DHT22;33088;51.982;5.872;2023-03-01T09:45:55;3.40;99.90
47350;DHT22;33088;51.982;5.872;2023-03-01T09:48:27;3.50;99.90
47350;DHT22;33088;51.982;5.872;2023-03-01T09:50:55;3.40;99.90
47350;DHT22;33088;51.982;5.872;2023-03-01T09:53:25;3.40;99.90
47350;DHT22;33088;51.982;5.872;2023-03-01T09:56:00;3.50;99.90
47350;DHT22;33088;51.982;5.872;2023-03-01T10:07:10;3.60;99.90
47350;DHT22;33088;51.982;5.872;2023-03-01T10:09:42;3.70;99.90
47350;DHT22;33088;51.982;5.872;2023-03-01T10:12:18;3.60;99.90
47350;DHT22;33088;51.982;5.872;2023-03-01T10:17:15;3.70;99.90
47350;DHT22;33088;51.982;5.872;2023-03-01T10:19:46;3.70;99.90
47350;DHT22;33088;51.982;5.872;2023-03-01T10:22:28;3.80;99.90
47350;DHT22;33088;51.982;5.872;2023-03-01T10:24:57;3.80;99.90
47350;DHT22;33088;51.982;5.872;2023-03-01T10:27:25;3.90;99.90
47350;DHT22;33088;51.982;5.872;2023-03-01T10:30:05;3.90;99.90
47350;DHT22;33088;51.982;5.872;2023-03-01T10:32:36;3.90;99.90
47350;DHT22;33088;51.982;5.872;2023-03-01T10:35:22;4.00;99.90
47350;DHT22;33088;51.982;5.872;2023-03-01T10:38:04;4.10;99.90
47350;DHT22;33088;51.982;5.872;2023-03-01T10:40:32;4.20;99.90
47350;DHT22;33088;51.982;5.872;2023-03-01T10:42:59;4.30;99.90
47350;DHT22;33088;51.982;5.872;2023-03-01T10:45:36;4.30;99.90
47350;DHT22;33088;51.982;5.872;2023-03-01T10:50:30;4.40;99.90
47350;DHT22;33088;51.982;5.872;2023-03-01T10:52:59;4.40;99.90
47350;DHT22;33088;51.982;5.872;2023-03-01T10:55:37;4.40;99.90
47350;DHT22;33088;51.982;5.872;2023-03-01T10:58:18;4.40;99.90
47350;DHT22;33088;51.982;5.872;2023-03-01T11:00:54;4.60;99.90
47350;DHT22;33088;51.982;5.872;2023-03-01T11:03:23;4.60;99.90
47350;DHT22;33088;51.982;5.872;2023-03-01T11:08:31;4.70;99.90
47350;DHT22;33088;51.982;5.872;2023-03-01T11:13:31;4.80;99.90
47350;DHT22;33088;51.982;5.872;2023-03-01T11:16:02;4.90;99.90
47350;DHT22;33088;51.982;5.872;2023-03-01T11:18:30;5.00;99.90
47350;DHT22;33088;51.982;5.872;2023-03-01T11:20:58;5.10;99.90
47350;DHT22;33088;51.982;5.872;2023-03-01T11:23:25;5.10;99.90
47350;DHT22;33088;51.982;5.872;2023-03-01T11:26:01;5.10;99.90
47350;DHT22;33088;51.982;5.872;2023-03-01T11:28:29;5.20;99.90
47350;DHT22;33088;51.982;5.872;2023-03-01T11:30:56;5.30;99.90
47350;DHT22;33088;51.982;5.872;2023-03-01T11:40:03;5.40;99.90
47350;DHT22;33088;51.982;5.872;2023-03-01T11:44:50;5.60;99.90
47350;DHT22;33088;51.982;5.872;2023-03-01T12:06:12;5.90;99.60
47350;DHT22;33088;51.982;5.872;2023-03-01T12:11:59;5.60;98.40
47350;DHT22;33088;51.982;5.872;2023-03-01T12:14:37;5.60;99.10
47350;DHT22;33088;51.982;5.872;2023-03-01T12:25:10;5.90;98.70
47350;DHT22;33088;51.982;5.872;2023-03-01T12:33:11;6.20;99.30
47350;DHT22;33088;51.982;5.872;2023-03-01T12:35:54;6.20;98.40
47350;DHT22;33088;51.982;5.872;2023-03-01T12:38:49;6.20;98.20
47350;DHT22;33088;51.982;5.872;2023-03-01T12:49:15;6.40;98.50
47350;DHT22;33088;51.982;5.872;2023-03-01T12:51:50;6.40;98.00
47350;DHT22;33088;51.982;5.872;2023-03-01T12:54:36;6.30;98.50
47350;DHT22;33088;51.982;5.872;2023-03-01T13:03:23;6.40;97.90
47350;DHT22;33088;51.982;5.872;2023-03-01T13:05:42;6.40;98.20
47350;DHT22;33088;51.982;5.872;2023-03-01T13:08:19;6.50;98.00
47350;DHT22;33088;51.982;5.872;2023-03-01T13:10:52;6.50;98.80
47350;DHT22;33088;51.982;5.872;2023-03-01T13:13:23;6.70;98.10
47350;DHT22;33088;51.982;5.872;2023-03-01T13:15:50;6.90;98.00
47350;DHT22;33088;51.982;5.872;2023-03-01T13:20:47;6.70;98.20
47350;DHT22;33088;51.982;5.872;2023-03-01T13:28:38;6.90;97.30
47350;DHT22;33088;51.982;5.872;2023-03-01T13:33:58;7.00;97.70
47350;DHT22;33088;51.982;5.872;2023-03-01T13:38:57;6.80;96.60
47350;DHT22;33088;51.982;5.872;2023-03-01T13:46:51;7.00;97.20
47350;DHT22;33088;51.982;5.872;2023-03-01T13:49:20;7.00;97.40
47350;DHT22;33088;51.982;5.872;2023-03-01T13:51:47;7.00;96.80
47350;DHT22;33088;51.982;5.872;2023-03-01T13:54:16;7.00;97.30
47350;DHT22;33088;51.982;5.872;2023-03-01T13:56:42;7.00;97.40
47350;DHT22;33088;51.982;5.872;2023-03-01T13:59:20;7.00;97.70
47350;DHT22;33088;51.982;5.872;2023-03-01T14:01:58;7.10;97.20
47350;DHT22;33088;51.982;5.872;2023-03-01T14:04:25;7.20;96.70
47350;DHT22;33088;51.982;5.872;2023-03-01T14:06:51;7.20;96.60
47350;DHT22;33088;51.982;5.872;2023-03-01T14:09:23;7.10;96.70
47350;DHT22;33088;51.982;5.872;2023-03-01T14:12:14;7.00;97.00
47350;DHT22;33088;51.982;5.872;2023-03-01T14:20:02;7.10;97.60
47350;DHT22;33088;51.982;5.872;2023-03-01T14:22:34;7.00;97.70
47350;DHT22;33088;51.982;5.872;2023-03-01T14:25:19;7.00;97.40
47350;DHT22;33088;51.982;5.872;2023-03-01T14:27:52;6.90;97.50
47350;DHT22;33088;51.982;5.872;2023-03-01T14:30:30;6.90;98.20
47350;DHT22;33088;51.982;5.872;2023-03-01T14:32:59;6.90;97.40
47350;DHT22;33088;51.982;5.872;2023-03-01T14:35:28;6.90;97.40
47350;DHT22;33088;51.982;5.872;2023-03-01T14:37:54;6.80;97.50
47350;DHT22;33088;51.982;5.872;2023-03-01T14:42:56;6.80;97.70
47350;DHT22;33088;51.982;5.872;2023-03-01T14:45:25;6.80;97.40
47350;DHT22;33088;51.982;5.872;2023-03-01T14:47:52;6.90;97.40
47350;DHT22;33088;51.982;5.872;2023-03-01T14:50:42;6.90;97.30
47350;DHT22;33088;51.982;5.872;2023-03-01T14:53:22;6.90;97.20
47350;DHT22;33088;51.982;5.872;2023-03-01T14:55:59;6.80;97.40
47350;DHT22;33088;51.982;5.872;2023-03-01T14:58:28;6.80;96.90
47350;DHT22;33088;51.982;5.872;2023-03-01T15:00:56;6.80;97.30
47350;DHT22;33088;51.982;5.872;2023-03-01T15:03:35;6.80;97.00
47350;DHT22;33088;51.982;5.872;2023-03-01T15:06:06;6.90;96.80
47350;DHT22;33088;51.982;5.872;2023-03-01T15:08:33;6.90;96.30
47350;DHT22;33088;51.982;5.872;2023-03-01T15:11:24;6.90;96.80
47350;DHT22;33088;51.982;5.872;2023-03-01T15:13:52;6.90;97.60
47350;DHT22;33088;51.982;5.872;2023-03-01T15:16:39;6.90;96.60
47350;DHT22;33088;51.982;5.872;2023-03-01T15:19:07;6.80;96.70
47350;DHT22;33088;51.982;5.872;2023-03-01T15:21:35;6.80;96.70
47350;DHT22;33088;51.982;5.872;2023-03-01T15:26:56;6.70;96.80
47350;DHT22;33088;51.982;5.872;2023-03-01T15:29:26;6.60;97.10
47350;DHT22;33088;51.982;5.872;2023-03-01T15:32:03;6.60;97.30
47350;DHT22;33088;51.982;5.872;2023-03-01T15:34:32;6.60;97.20
47350;DHT22;33088;51.982;5.872;2023-03-01T15:37:00;6.50;97.20
47350;DHT22;33088;51.982;5.872;2023-03-01T15:42:11;6.60;97.20
47350;DHT22;33088;51.982;5.872;2023-03-01T15:44:39;6.60;97.10
47350;DHT22;33088;51.982;5.872;2023-03-01T15:47:30;6.60;97.20
47350;DHT22;33088;51.982;5.872;2023-03-01T15:49:58;6.50;97.80
47350;DHT22;33088;51.982;5.872;2023-03-01T15:52:36;6.50;97.30
47350;DHT22;33088;51.982;5.872;2023-03-01T15:55:23;6.60;97.90
47350;DHT22;33088;51.982;5.872;2023-03-01T15:57:50;6.60;97.90
47350;DHT22;33088;51.982;5.872;2023-03-01T16:00:23;6.50;98.00
47350;DHT22;33088;51.982;5.872;2023-03-01T16:02:48;6.60;97.80
47350;DHT22;33088;51.982;5.872;2023-03-01T16:05:34;6.50;98.20
47350;DHT22;33088;51.982;5.872;2023-03-01T16:08:02;6.50;97.50
47350;DHT22;33088;51.982;5.872;2023-03-01T16:10:28;6.60;97.80
47350;DHT22;33088;51.982;5.872;2023-03-01T16:12:54;6.50;97.80
47350;DHT22;33088;51.982;5.872;2023-03-01T16:15:31;6.50;97.30
47350;DHT22;33088;51.982;5.872;2023-03-01T16:17:57;6.50;97.10
47350;DHT22;33088;51.982;5.872;2023-03-01T16:20:26;6.40;97.10
47350;DHT22;33088;51.982;5.872;2023-03-01T16:22:53;6.40;97.20
47350;DHT22;33088;51.982;5.872;2023-03-01T16:25:19;6.30;96.90
47350;DHT22;33088;51.982;5.872;2023-03-01T16:27:48;6.30;97.00
47350;DHT22;33088;51.982;5.872;2023-03-01T16:30:16;6.30;96.90
47350;DHT22;33088;51.982;5.872;2023-03-01T16:32:46;6.20;97.10
47350;DHT22;33088;51.982;5.872;2023-03-01T16:35:14;6.10;97.10
47350;DHT22;33088;51.982;5.872;2023-03-01T16:37:41;6.10;97.40
47350;DHT22;33088;51.982;5.872;2023-03-01T16:40:17;6.10;97.40
47350;DHT22;33088;51.982;5.872;2023-03-01T16:42:43;6.00;97.40
47350;DHT22;33088;51.982;5.872;2023-03-01T16:45:09;6.00;97.40
47350;DHT22;33088;51.982;5.872;2023-03-01T16:47:35;6.00;97.60
47350;DHT22;33088;51.982;5.872;2023-03-01T16:50:01;5.90;97.80
47350;DHT22;33088;51.982;5.872;2023-03-01T16:52:27;5.90;97.80
47350;DHT22;33088;51.982;5.872;2023-03-01T16:54:53;5.90;97.90
47350;DHT22;33088;51.982;5.872;2023-03-01T16:57:18;5.80;98.00
47350;DHT22;33088;51.982;5.872;2023-03-01T16:59:44;5.80;97.90
47350;DHT22;33088;51.982;5.872;2023-03-01T17:02:14;5.80;98.10
47350;DHT22;33088;51.982;5.872;2023-03-01T17:04:44;5.70;98.20
47350;DHT22;33088;51.982;5.872;2023-03-01T17:07:10;5.70;98.20
47350;DHT22;33088;51.982;5.872;2023-03-01T17:09:37;5.60;98.40
47350;DHT22;33088;51.982;5.872;2023-03-01T17:12:05;5.50;98.50
47350;DHT22;33088;51.982;5.872;2023-03-01T17:14:31;5.50;98.50
47350;DHT22;33088;51.982;5.872;2023-03-01T17:16:57;5.40;99.10
47350;DHT22;33088;51.982;5.872;2023-03-01T17:19:23;5.30;99.40
47350;DHT22;33088;51.982;5.872;2023-03-01T17:21:48;5.20;99.40
47350;DHT22;33088;51.982;5.872;2023-03-01T17:24:14;5.20;99.40
47350;DHT22;33088;51.982;5.872;2023-03-01T17:26:40;5.10;99.70
47350;DHT22;33088;51.982;5.872;2023-03-01T17:29:06;5.00;99.60
47350;DHT22;33088;51.982;5.872;2023-03-01T17:31:32;5.00;99.90
47350;DHT22;33088;51.982;5.872;2023-03-01T17:33:58;4.90;99.90
47350;DHT22;33088;51.982;5.872;2023-03-01T17:36:24;4.80;99.90
47350;DHT22;33088;51.982;5.872;2023-03-01T17:38:50;4.80;99.90
47350;DHT22;33088;51.982;5.872;2023-03-01T17:41:17;4.70;99.90
47350;DHT22;33088;51.982;5.872;2023-03-01T17:43:46;4.70;99.90
47350;DHT22;33088;51.982;5.872;2023-03-01T17:46:11;4.60;99.90
47350;DHT22;33088;51.982;5.872;2023-03-01T17:48:37;4.60;99.90
47350;DHT22;33088;51.982;5.872;2023-03-01T17:51:07;4.60;99.90